createdAt,value
2022-11-29T00:01:38.746Z,99598.63
2022-11-29T00:04:05.302Z,99602.28
2022-11-29T00:06:33.072Z,99596.56
2022-11-29T00:09:01.846Z,99596.47
2022-11-29T00:11:48.806Z,99602.66
2022-11-29T00:14:18.050Z,99601.38
2022-11-29T00:16:45.055Z,99602.31
2022-11-29T00:19:12.856Z,99605.03
2022-11-29T00:21:39.291Z,99598.72
2022-11-29T00:24:06.035Z,99589.69
2022-11-29T00:26:32.502Z,99590.44
2022-11-29T00:28:59.363Z,99595.63
2022-11-29T00:31:30.310Z,99602.28
2022-11-29T00:33:57.729Z,99605.69
2022-11-29T00:36:24.448Z,99597.22
2022-11-29T00:38:51.126Z,99599.09
2022-11-29T00:41:17.739Z,99604.47
2022-11-29T00:43:44.165Z,99593.47
2022-11-29T00:46:10.918Z,99602.47
2022-11-29T00:48:37.468Z,99602.66
2022-11-29T00:51:04.879Z,99601.91
2022-11-29T00:53:31.754Z,99601.06
2022-11-29T00:55:58.253Z,99598.53
2022-11-29T00:58:24.834Z,99608.88
2022-11-29T01:00:53.248Z,99606.06
2022-11-29T01:03:19.975Z,99609.63
2022-11-29T01:05:46.569Z,99608.88
2022-11-29T01:08:13.396Z,99607.28
2022-11-29T01:10:40.002Z,99609.25
2022-11-29T01:13:06.826Z,99615.38
2022-11-29T01:15:33.340Z,99610.28
2022-11-29T01:17:59.782Z,99618.16
2022-11-29T01:20:26.976Z,99613.78
2022-11-29T01:22:53.771Z,99619.13
2022-11-29T01:25:20.257Z,99615.63
2022-11-29T01:27:46.870Z,99619.88
2022-11-29T01:30:13.433Z,99609.25
2022-11-29T01:32:39.833Z,99617.91
2022-11-29T01:35:06.932Z,99616.97
2022-11-29T01:37:33.420Z,99617.91
2022-11-29T01:39:59.933Z,99627.66
2022-11-29T01:42:26.499Z,99624.31
2022-11-29T01:45:20.034Z,99624.41
2022-11-29T01:47:47.700Z,99619.13
2022-11-29T01:50:14.520Z,99630.31
2022-11-29T01:52:41.399Z,99626.06
2022-11-29T01:55:09.656Z,99625.25
2022-11-29T01:57:38.896Z,99619.13
2022-11-29T02:00:09.872Z,99622.69
2022-11-29T02:02:52.351Z,99622.03
2022-11-29T02:05:20.012Z,99620.16
2022-11-29T02:07:48.833Z,99631.63
2022-11-29T02:10:15.675Z,99620.53
2022-11-29T02:13:01.197Z,99623.91
2022-11-29T02:15:49.474Z,99630.88
2022-11-29T02:18:38.676Z,99634.44
2022-11-29T02:21:26.556Z,99630.59
2022-11-29T02:24:05.037Z,99626.00
2022-11-29T02:27:08.794Z,99632.66
2022-11-29T02:30:00.320Z,99633.13
2022-11-29T02:32:48.249Z,99633.34
2022-11-29T02:35:48.931Z,99630.88
2022-11-29T02:38:36.273Z,99635.41
2022-11-29T02:41:21.599Z,99635.56
2022-11-29T02:44:18.389Z,99637.84
2022-11-29T02:47:21.909Z,99642.06
2022-11-29T02:50:08.210Z,99641.50
2022-11-29T02:52:59.076Z,99639.81
2022-11-29T02:55:38.793Z,99637.63
2022-11-29T02:58:19.374Z,99635.19
2022-11-29T03:01:23.391Z,99643.94
2022-11-29T03:04:27.102Z,99636.03
2022-11-29T03:07:03.895Z,99639.69
2022-11-29T03:09:42.729Z,99643.34
2022-11-29T03:12:32.203Z,99643.34
2022-11-29T03:15:01.602Z,99644.38
2022-11-29T03:17:27.844Z,99652.84
2022-11-29T03:20:21.237Z,99655.69
2022-11-29T03:23:06.872Z,99663.00
2022-11-29T03:25:38.498Z,99656.16
2022-11-29T03:28:11.294Z,99660.63
2022-11-29T03:30:41.014Z,99663.28
2022-11-29T03:33:25.010Z,99664.19
2022-11-29T03:36:00.748Z,99668.72
2022-11-29T03:38:36.551Z,99671.63
2022-11-29T03:41:18.424Z,99672.53
2022-11-29T03:43:55.194Z,99668.16
2022-11-29T03:46:39.556Z,99672.66
2022-11-29T03:49:16.853Z,99672.66
2022-11-29T03:51:58.715Z,99667.47
2022-11-29T03:54:32.847Z,99677.91
2022-11-29T03:56:59.677Z,99678.59
2022-11-29T03:59:40.382Z,99672.47
2022-11-29T04:02:21.904Z,99674.91
2022-11-29T04:05:12.663Z,99678.38
2022-11-29T04:08:04.789Z,99672.78
2022-11-29T04:10:56.044Z,99668.19
2022-11-29T04:14:14.731Z,99668.84
2022-11-29T04:17:10.017Z,99660.09
2022-11-29T04:19:55.337Z,99667.16
2022-11-29T04:22:33.212Z,99668.94
2022-11-29T04:25:18.700Z,99665.44
2022-11-29T04:28:10.113Z,99675.03
2022-11-29T04:31:11.864Z,99677.59
2022-11-29T04:33:50.099Z,99680.88
2022-11-29T04:36:49.027Z,99690.22
2022-11-29T04:39:40.200Z,99692.75
2022-11-29T04:42:14.908Z,99687.03
2022-11-29T04:44:53.415Z,99690.94
2022-11-29T04:47:28.814Z,99705.97
2022-11-29T04:49:55.386Z,99700.78
2022-11-29T04:53:03.513Z,99702.84
2022-11-29T04:55:59.306Z,99703.03
2022-11-29T04:58:46.235Z,99704.13
2022-11-29T05:01:41.366Z,99713.91
2022-11-29T05:04:19.487Z,99704.41
2022-11-29T05:06:52.050Z,99709.59
2022-11-29T05:09:42.323Z,99717.38
2022-11-29T05:12:35.146Z,99714.00
2022-11-29T05:15:07.675Z,99718.41
2022-11-29T05:17:46.787Z,99727.06
2022-11-29T05:20:24.313Z,99728.00
2022-11-29T05:23:33.861Z,99738.78
2022-11-29T05:26:15.897Z,99728.34
2022-11-29T05:29:06.986Z,99739.91
2022-11-29T05:31:39.647Z,99737.25
2022-11-29T05:34:34.545Z,99735.66
2022-11-29T05:37:01.508Z,99736.94
2022-11-29T05:39:42.054Z,99729.72
2022-11-29T05:42:32.888Z,99730.88
2022-11-29T05:45:14.691Z,99738.19
2022-11-29T05:47:57.269Z,99735.66
2022-11-29T05:50:37.592Z,99739.22
2022-11-29T05:53:25.927Z,99745.34
2022-11-29T05:56:08.788Z,99744.66
2022-11-29T05:58:50.342Z,99745.84
2022-11-29T06:01:45.329Z,99748.47
2022-11-29T06:04:14.776Z,99755.09
2022-11-29T06:06:50.389Z,99761.97
2022-11-29T06:09:17.388Z,99768.00
2022-11-29T06:11:50.646Z,99759.44
2022-11-29T06:14:35.974Z,99762.91
2022-11-29T06:17:15.304Z,99766.47
2022-11-29T06:19:48.047Z,99772.59
2022-11-29T06:22:48.868Z,99776.06
2022-11-29T06:26:04.076Z,99775.38
2022-11-29T06:28:49.147Z,99777.66
2022-11-29T06:31:27.419Z,99775.81
2022-11-29T06:33:59.807Z,99779.28
2022-11-29T06:36:36.260Z,99779.28
2022-11-29T06:39:03.129Z,99780.19
2022-11-29T06:41:29.867Z,99779.47
2022-11-29T06:43:56.598Z,99778.78
2022-11-29T06:46:25.952Z,99790.13
2022-11-29T06:49:11.149Z,99795.06
2022-11-29T06:52:11.420Z,99791.59
2022-11-29T06:54:50.068Z,99795.16
2022-11-29T06:57:28.630Z,99795.06
2022-11-29T07:00:15.911Z,99797.69
2022-11-29T07:03:01.345Z,99796.63
2022-11-29T07:05:31.220Z,99799.16
2022-11-29T07:08:02.382Z,99803.63
2022-11-29T07:10:31.909Z,99808.91
2022-11-29T07:12:58.672Z,99816.97
2022-11-29T07:15:25.574Z,99814.59
2022-11-29T07:18:01.114Z,99820.09
2022-11-29T07:20:54.240Z,99819.09
2022-11-29T07:23:45.362Z,99822.16
2022-11-29T07:26:30.057Z,99818.59
2022-11-29T07:29:06.758Z,99828.34
2022-11-29T07:31:42.266Z,99839.66
2022-11-29T07:34:17.554Z,99832.44
2022-11-29T07:37:14.673Z,99840.16
2022-11-29T07:40:05.767Z,99845.16
2022-11-29T07:42:52.257Z,99846.50
2022-11-29T07:45:31.809Z,99850.75
2022-11-29T07:47:58.997Z,99844.56
2022-11-29T07:50:26.937Z,99844.38
2022-11-29T07:52:54.178Z,99849.63
2022-11-29T07:55:22.151Z,99853.47
2022-11-29T07:57:49.300Z,99852.03
2022-11-29T08:00:17.229Z,99853.06
2022-11-29T08:02:44.128Z,99856.63
2022-11-29T08:05:10.880Z,99861.88
2022-11-29T08:07:38.597Z,99859.25
2022-11-29T08:10:07.552Z,99863.00
2022-11-29T08:12:34.092Z,99871.81
2022-11-29T08:15:01.510Z,99866.47
2022-11-29T08:17:27.997Z,99859.41
2022-11-29T08:19:54.495Z,99867.91
2022-11-29T08:22:20.979Z,99867.75
2022-11-29T08:24:47.765Z,99874.72
2022-11-29T08:27:14.459Z,99873.00
2022-11-29T08:29:40.968Z,99874.34
2022-11-29T08:32:08.844Z,99884.88
2022-11-29T08:34:35.288Z,99884.53
2022-11-29T08:37:01.679Z,99878.44
2022-11-29T08:39:28.087Z,99888.09
2022-11-29T08:41:54.470Z,99889.91
2022-11-29T08:44:20.930Z,99892.53
2022-11-29T08:47:06.037Z,99895.84
2022-11-29T08:49:32.865Z,99900.00
2022-11-29T08:52:18.099Z,99901.63
2022-11-29T08:54:44.940Z,99907.81
2022-11-29T08:57:38.577Z,99908.78
2022-11-29T08:59:58.004Z,99910.44
2022-11-29T09:02:24.489Z,99906.88
2022-11-29T09:04:50.959Z,99912.25
2022-11-29T09:07:17.909Z,99914.69
2022-11-29T09:09:44.397Z,99919.97
2022-11-29T09:12:10.801Z,99914.69
2022-11-29T09:14:37.237Z,99917.66
2022-11-29T09:17:03.641Z,99919.88
2022-11-29T09:19:30.220Z,99918.94
2022-11-29T09:21:56.839Z,99924.31
2022-11-29T09:24:23.359Z,99924.13
2022-11-29T09:26:49.866Z,99926.84
2022-11-29T09:29:17.419Z,99926.75
2022-11-29T09:31:45.192Z,99923.19
2022-11-29T09:34:15.940Z,99927.59
2022-11-29T09:36:44.026Z,99929.88
2022-11-29T09:39:12.346Z,99935.00
2022-11-29T09:41:44.286Z,99940.34
2022-11-29T09:44:27.312Z,99945.03
2022-11-29T09:47:08.362Z,99946.81
2022-11-29T09:49:55.566Z,99953.88
2022-11-29T09:52:55.225Z,99946.03
2022-11-29T09:55:43.109Z,99951.97
2022-11-29T09:58:13.458Z,99945.78
2022-11-29T10:00:49.711Z,99949.09
2022-11-29T10:03:26.615Z,99953.34
2022-11-29T10:06:01.120Z,99950.53
2022-11-29T10:08:34.108Z,99949.69
2022-11-29T10:11:21.201Z,99954.13
2022-11-29T10:13:52.315Z,99955.78
2022-11-29T10:16:40.995Z,99948.41
2022-11-29T10:19:07.821Z,99954.44
2022-11-29T10:21:36.801Z,99948.41
2022-11-29T10:24:08.982Z,99952.72
2022-11-29T10:26:35.714Z,99954.34
2022-11-29T10:29:02.312Z,99952.47
2022-11-29T10:31:32.543Z,99951.63
2022-11-29T10:34:01.044Z,99947.09
2022-11-29T10:36:44.503Z,99956.53
2022-11-29T10:39:22.504Z,99945.16
2022-11-29T10:41:55.760Z,99935.38
2022-11-29T10:44:22.631Z,99948.28
2022-11-29T10:46:49.105Z,99942.16
2022-11-29T10:49:18.745Z,99942.84
2022-11-29T10:51:48.354Z,99940.88
2022-11-29T10:54:28.915Z,99941.72
2022-11-29T10:56:57.201Z,99942.66
2022-11-29T10:59:25.810Z,99944.34
2022-11-29T11:01:52.409Z,99943.53
2022-11-29T11:04:28.719Z,99947.00
2022-11-29T11:07:00.139Z,99944.34
2022-11-29T11:09:36.256Z,99949.81
2022-11-29T11:12:08.520Z,99937.38
2022-11-29T11:14:37.575Z,99940.88
2022-11-29T11:17:25.904Z,99945.97
2022-11-29T11:19:58.578Z,99948.50
2022-11-29T11:22:25.779Z,99948.59
2022-11-29T11:24:58.388Z,99949.53
2022-11-29T11:27:30.073Z,99945.13
2022-11-29T11:29:56.698Z,99947.78
2022-11-29T11:32:23.218Z,99947.84
2022-11-29T11:34:57.876Z,99954.91
2022-11-29T11:37:29.869Z,99950.31
2022-11-29T11:39:59.662Z,99955.59
2022-11-29T11:42:36.983Z,99956.59
2022-11-29T11:45:11.880Z,99958.66
2022-11-29T11:47:47.282Z,99958.38
2022-11-29T11:50:16.612Z,99963.66
2022-11-29T11:52:50.593Z,99964.31
2022-11-29T11:55:38.343Z,99972.34
2022-11-29T11:58:09.740Z,99973.75
2022-11-29T12:01:05.498Z,99968.56
2022-11-29T12:03:57.587Z,99966.81
2022-11-29T12:06:27.707Z,99974.72
2022-11-29T12:09:03.845Z,99974.63
2022-11-29T12:11:55.306Z,99966.81
2022-11-29T12:14:28.570Z,99968.56
2022-11-29T12:17:03.525Z,99964.75
2022-11-29T12:19:36.048Z,99967.09
2022-11-29T12:22:07.209Z,99969.16
2022-11-29T12:24:51.179Z,99970.09
2022-11-29T12:27:17.833Z,99973.41
2022-11-29T12:29:44.298Z,99976.13
2022-11-29T12:32:24.529Z,99978.78
2022-11-29T12:35:19.038Z,99980.47
2022-11-29T12:38:08.797Z,99984.63
2022-11-29T12:40:51.099Z,99982.56
2022-11-29T12:43:35.535Z,99985.50
2022-11-29T12:46:12.774Z,99990.09
2022-11-29T12:49:05.900Z,99989.41
2022-11-29T12:51:41.849Z,99986.78
2022-11-29T12:54:26.538Z,99986.19
2022-11-29T12:57:15.082Z,99984.47
2022-11-29T13:00:11.714Z,99981.75
2022-11-29T13:02:45.341Z,99980.16
2022-11-29T13:05:33.855Z,99983.66
2022-11-29T13:08:11.043Z,99986.00
2022-11-29T13:10:52.391Z,99977.34
2022-11-29T13:13:24.639Z,99988.53
2022-11-29T13:15:54.112Z,99988.38
2022-11-29T13:18:57.318Z,99991.69
2022-11-29T13:21:39.383Z,99983.50
2022-11-29T13:24:11.812Z,99993.69
2022-11-29T13:26:39.387Z,99993.44
2022-11-29T13:29:06.750Z,100002.63
2022-11-29T13:31:33.480Z,100002.72
2022-11-29T13:34:10.178Z,99999.25
2022-11-29T13:36:42.705Z,99998.50
2022-11-29T13:39:15.312Z,99990.47
2022-11-29T13:41:49.154Z,99991.50
2022-11-29T13:44:18.210Z,99992.84
2022-11-29T13:47:03.481Z,99996.44
2022-11-29T13:49:52.746Z,99992.84
2022-11-29T13:52:38.370Z,99998.03
2022-11-29T13:55:05.951Z,99999.25
2022-11-29T13:58:16.369Z,99996.78
2022-11-29T14:00:43.789Z,100006.66
2022-11-29T14:03:28.597Z,100003.09
2022-11-29T14:06:08.497Z,99998.84
2022-11-29T14:09:17.897Z,100010.22
2022-11-29T14:11:50.826Z,100005.72
2022-11-29T14:14:17.200Z,100007.31
2022-11-29T14:16:43.499Z,100012.69
2022-11-29T14:19:10.034Z,100011.41
2022-11-29T14:22:04.561Z,100012.06
2022-11-29T14:24:37.001Z,100022.44
2022-11-29T14:27:06.359Z,100024.41
2022-11-29T14:29:53.895Z,100023.72
2022-11-29T14:32:28.503Z,100028.44
2022-11-29T14:34:59.352Z,100024.94
2022-11-29T14:37:33.818Z,100029.63
2022-11-29T14:40:02.417Z,100032.34
2022-11-29T14:42:29.185Z,100037.38
2022-11-29T14:44:58.391Z,100027.75
2022-11-29T14:47:38.731Z,100042.72
2022-11-29T14:50:08.852Z,100035.16
2022-11-29T14:52:37.996Z,100028.91
2022-11-29T14:55:27.444Z,100045.50
2022-11-29T14:57:55.246Z,100042.97
2022-11-29T15:00:24.395Z,100036.56
2022-11-29T15:02:55.223Z,100039.69
2022-11-29T15:05:31.954Z,100044.88
2022-11-29T15:08:15.055Z,100037.94
2022-11-29T15:10:44.619Z,100044.63
2022-11-29T15:13:14.110Z,100047.06
2022-11-29T15:16:00.912Z,100041.88
2022-11-29T15:18:59.407Z,100049.22
2022-11-29T15:21:38.348Z,100048.63
2022-11-29T15:24:13.892Z,100055.03
2022-11-29T15:26:55.459Z,100057.00
2022-11-29T15:29:22.066Z,100055.03
2022-11-29T15:32:00.896Z,100062.94
2022-11-29T15:34:45.531Z,100068.31
2022-11-29T15:37:39.455Z,100070.09
2022-11-29T15:40:17.724Z,100064.22
2022-11-29T15:42:47.070Z,100072.13
2022-11-29T15:45:22.521Z,100072.38
2022-11-29T15:47:49.242Z,100079.34
2022-11-29T15:50:32.571Z,100080.97
2022-11-29T15:53:02.873Z,100084.19
2022-11-29T15:55:29.595Z,100080.38
2022-11-29T15:57:58.151Z,100081.38
2022-11-29T16:00:26.514Z,100084.09
2022-11-29T16:03:19.966Z,100085.22
2022-11-29T16:05:49.618Z,100085.22
2022-11-29T16:08:19.302Z,100080.88
2022-11-29T16:10:49.439Z,100092.28
2022-11-29T16:13:25.093Z,100089.81
2022-11-29T16:16:12.698Z,100092.72
2022-11-29T16:18:40.944Z,100092.78
2022-11-29T16:21:22.173Z,100099.78
2022-11-29T16:23:48.685Z,100097.13
2022-11-29T16:26:22.422Z,100092.78
2022-11-29T16:28:51.816Z,100092.72
2022-11-29T16:31:18.420Z,100096.78
2022-11-29T16:33:47.489Z,100091.13
2022-11-29T16:36:19.372Z,100094.59
2022-11-29T16:38:51.383Z,100097.41
2022-11-29T16:41:22.268Z,100101.16
2022-11-29T16:43:55.317Z,100101.44
2022-11-29T16:46:21.731Z,100102.25
2022-11-29T16:48:49.188Z,100104.31
2022-11-29T16:51:23.432Z,100105.91
2022-11-29T16:53:53.685Z,100103.38
2022-11-29T16:56:25.221Z,100111.19
2022-11-29T16:59:20.971Z,100105.81
2022-11-29T17:01:48.843Z,100112.91
2022-11-29T17:04:23.413Z,100115.78
2022-11-29T17:06:51.931Z,100115.97
2022-11-29T17:09:22.291Z,100114.59
2022-11-29T17:11:48.905Z,100107.72
2022-11-29T17:14:15.349Z,100115.81
2022-11-29T17:16:41.958Z,100113.16
2022-11-29T17:19:11.640Z,100120.19
2022-11-29T17:21:38.150Z,100116.13
2022-11-29T17:24:05.111Z,100112.03
2022-11-29T17:26:31.522Z,100113.13
2022-11-29T17:28:57.952Z,100121.91
2022-11-29T17:31:24.449Z,100115.25
2022-11-29T17:33:51.210Z,100119.09
2022-11-29T17:36:19.633Z,100131.50
2022-11-29T17:38:46.544Z,100125.53
2022-11-29T17:41:20.780Z,100124.69
2022-11-29T17:43:47.629Z,100130.97
2022-11-29T17:46:16.523Z,100128.34
2022-11-29T17:48:46.065Z,100132.75
2022-11-29T17:51:43.636Z,100134.22
2022-11-29T17:54:04.461Z,100138.28
2022-11-29T17:56:31.317Z,100140.19
2022-11-29T17:59:00.123Z,100148.09
2022-11-29T18:01:28.765Z,100138.69
2022-11-29T18:03:58.197Z,100143.13
2022-11-29T18:06:25.642Z,100151.72
2022-11-29T18:08:54.767Z,100156.13
2022-11-29T18:11:40.332Z,100149.25
2022-11-29T18:14:13.109Z,100152.56
2022-11-29T18:16:39.642Z,100152.56
2022-11-29T18:19:08.863Z,100154.28
2022-11-29T18:21:35.638Z,100150.72
2022-11-29T18:24:03.687Z,100157.06
2022-11-29T18:26:30.913Z,100160.72
2022-11-29T18:28:58.194Z,100160.09
2022-11-29T18:31:28.211Z,100161.38
2022-11-29T18:33:57.326Z,100166.78
2022-11-29T18:36:26.311Z,100160.38
2022-11-29T18:39:04.355Z,100167.84
2022-11-29T18:41:31.204Z,100170.31
2022-11-29T18:44:05.421Z,100171.84
2022-11-29T18:46:32.783Z,100173.66
2022-11-29T18:49:00.853Z,100176.28
2022-11-29T18:51:28.573Z,100175.50
2022-11-29T18:53:55.218Z,100176.38
2022-11-29T18:56:23.674Z,100179.63
2022-11-29T18:58:58.350Z,100187.34
2022-11-29T19:01:27.186Z,100184.78
2022-11-29T19:03:55.064Z,100181.97
2022-11-29T19:06:23.812Z,100182.06
2022-11-29T19:08:51.742Z,100184.78
2022-11-29T19:11:21.289Z,100175.34
2022-11-29T19:13:51.812Z,100182.34
2022-11-29T19:16:19.112Z,100183.50
2022-11-29T19:18:45.935Z,100182.97
2022-11-29T19:21:14.277Z,100178.81
2022-11-29T19:23:41.936Z,100182.28
2022-11-29T19:26:13.471Z,100181.56
2022-11-29T19:28:41.854Z,100185.84
2022-11-29T19:31:08.964Z,100193.66
2022-11-29T19:33:36.278Z,100184.13
2022-11-29T19:36:32.379Z,100188.94
2022-11-29T19:39:02.059Z,100181.75
2022-11-29T19:41:33.340Z,100192.28
2022-11-29T19:44:02.093Z,100183.69
2022-11-29T19:46:34.495Z,100189.97
2022-11-29T19:49:02.131Z,100190.75
2022-11-29T19:51:29.351Z,100191.81
2022-11-29T19:53:57.757Z,100190.97
2022-11-29T19:56:24.499Z,100192.59
2022-11-29T19:58:51.250Z,100190.56
2022-11-29T20:01:19.767Z,100186.75
2022-11-29T20:03:46.269Z,100186.09
2022-11-29T20:06:13.748Z,100196.63
2022-11-29T20:08:40.793Z,100196.78
2022-11-29T20:11:09.605Z,100195.75
2022-11-29T20:13:37.329Z,100197.63
2022-11-29T20:16:24.074Z,100197.63
2022-11-29T20:18:51.545Z,100207.06
2022-11-29T20:21:25.638Z,100200.88
2022-11-29T20:23:57.225Z,100206.47
2022-11-29T20:26:23.806Z,100202.03
2022-11-29T20:28:50.421Z,100202.66
2022-11-29T20:31:21.189Z,100207.06
2022-11-29T20:33:48.011Z,100217.09
2022-11-29T20:36:32.979Z,100219.03
2022-11-29T20:39:39.075Z,100227.69
2022-11-29T20:42:40.027Z,100217.41
2022-11-29T20:45:09.319Z,100230.16
2022-11-29T20:47:44.867Z,100223.72
2022-11-29T20:50:24.071Z,100214.38
2022-11-29T20:53:05.761Z,100218.38
2022-11-29T20:55:32.306Z,100222.19
2022-11-29T20:57:58.776Z,100222.28
2022-11-29T21:00:25.550Z,100228.47
2022-11-29T21:02:51.986Z,100223.41
2022-11-29T21:05:18.685Z,100225.00
2022-11-29T21:07:45.767Z,100228.06
2022-11-29T21:10:14.706Z,100226.22
2022-11-29T21:12:42.681Z,100221.88
2022-11-29T21:15:10.867Z,100218.38
2022-11-29T21:17:37.486Z,100212.09
2022-11-29T21:20:04.422Z,100213.88
2022-11-29T21:22:47.454Z,100221.88
2022-11-29T21:25:27.401Z,100221.00
2022-11-29T21:27:54.973Z,100222.72
2022-11-29T21:30:23.536Z,100218.22
2022-11-29T21:32:50.783Z,100226.75
2022-11-29T21:35:17.446Z,100216.44
2022-11-29T21:37:44.282Z,100226.84
2022-11-29T21:40:12.507Z,100228.59
2022-11-29T21:42:39.027Z,100224.41
2022-11-29T21:45:09.300Z,100234.75
2022-11-29T21:47:42.961Z,100231.19
2022-11-29T21:50:09.855Z,100225.22
2022-11-29T21:52:36.472Z,100222.56
2022-11-29T21:55:03.470Z,100227.91
2022-11-29T21:57:29.928Z,100233.13
2022-11-29T21:59:56.358Z,100233.72
2022-11-29T22:02:22.948Z,100233.03
2022-11-29T22:04:49.553Z,100240.00
2022-11-29T22:07:16.202Z,100238.28
2022-11-29T22:09:42.652Z,100241.75
2022-11-29T22:12:26.230Z,100241.75
2022-11-29T22:14:55.509Z,100233.94
2022-11-29T22:17:21.919Z,100241.84
2022-11-29T22:19:48.302Z,100236.59
2022-11-29T22:22:14.777Z,100241.25
2022-11-29T22:24:41.327Z,100241.16
2022-11-29T22:27:07.749Z,100243.16
2022-11-29T22:29:34.159Z,100245.72
2022-11-29T22:32:01.087Z,100241.16
2022-11-29T22:34:27.771Z,100244.56
2022-11-29T22:36:54.382Z,100248.03
2022-11-29T22:39:22.442Z,100247.22
2022-11-29T22:41:53.872Z,100242.03
2022-11-29T22:44:21.425Z,100237.91
2022-11-29T22:46:47.944Z,100249.97
2022-11-29T22:49:14.516Z,100250.75
2022-11-29T22:51:40.975Z,100248.03
2022-11-29T22:54:09.331Z,100242.94
2022-11-29T22:56:40.417Z,100249.94
2022-11-29T22:59:06.841Z,100248.13
2022-11-29T23:01:34.777Z,100239.53
2022-11-29T23:04:03.974Z,100239.63
2022-11-29T23:06:33.200Z,100240.53
2022-11-29T23:09:07.327Z,100236.91
2022-11-29T23:11:33.810Z,100232.56
2022-11-29T23:14:00.252Z,100233.50
2022-11-29T23:16:28.665Z,100241.25
2022-11-29T23:18:58.036Z,100249.75
2022-11-29T23:21:26.017Z,100248.91
2022-11-29T23:23:56.289Z,100248.13
2022-11-29T23:26:39.475Z,100252.88
2022-11-29T23:29:07.862Z,100258.22
2022-11-29T23:31:34.493Z,100253.78
2022-11-29T23:34:02.129Z,100259.16
2022-11-29T23:36:28.557Z,100252.34
2022-11-29T23:38:55.022Z,100247.75
2022-11-29T23:41:21.483Z,100248.53
2022-11-29T23:43:47.879Z,100242.72
2022-11-29T23:46:17.001Z,100248.91
2022-11-29T23:48:43.748Z,100242.56
2022-11-29T23:51:10.923Z,100246.28
2022-11-29T23:53:37.466Z,100243.94
2022-11-29T23:56:10.208Z,100245.13
2022-11-29T23:58:36.813Z,100246.84
